Time;durP1;ratioP1;P1;durP2;ratioP2;P2;SDS_P1;SDS_P2;PMS_P1;PMS_P2;Temp;Humidity;BMP_temperature;BMP_pressure;BME280_temperature;BME280_humidity;BME280_pressure;Samples;Min_cycle;Max_cycle;Signal;HPM_P1;HPM_P2
2023/10/10 00:02:20;;;;;;;;;;;;;;;;;;5013678;28;19922;-79
2023/10/10 00:04:47;;;;;;;;;;;;;;;;;;5013629;28;19926;-79
2023/10/10 00:07:14;;;;;;;;;;;;;;;;;;5013260;28;19929;-79
2023/10/10 00:09:44;;;;;;;;;;;;;;;;;;5017424;28;19928;-78
2023/10/10 00:12:11;;;;;;;;;;;;;;;;;;5019300;28;19929;-79
2023/10/10 00:14:38;;;;;;;;;;;;;;;;;;5036620;28;20286;-78
2023/10/10 00:17:07;;;;;;;;;;;;;;;;;;5036834;28;19921;-79
2023/10/10 00:19:42;;;;;;;;;;;;;;;;;;5036041;28;19920;-78
2023/10/10 00:22:09;;;;;;;;;;;;;;;;;;5036523;28;19921;-78
2023/10/10 00:24:36;;;;;;;;;;;;;;;;;;5036583;28;19928;-78
2023/10/10 00:27:12;;;;;;;;;;;;;;;;;;5030025;28;19921;-79
2023/10/10 00:29:42;;;;;;;;;;;;;;;;;;5016814;28;19921;-78
2023/10/10 00:32:14;;;;;;;;;;;;;;;;;;5016402;28;19921;-78
2023/10/10 00:34:40;;;;;;;;;;;;;;;;;;5016289;28;19921;-78
2023/10/10 00:37:11;;;;;;;;;;;;;;;;;;5017065;28;20405;-78
2023/10/10 00:39:37;;;;;;;;;;;;;;;;;;5016471;28;19933;-79
2023/10/10 00:42:07;;;;;;;;;;;;;;;;;;5022437;28;22176;-78
2023/10/10 00:44:37;;;;;;;;;;;;;;;;;;5016574;28;19921;-79
2023/10/10 00:47:13;;;;;;;;;;;;;;;;;;5016503;28;19921;-78
2023/10/10 00:49:40;;;;;;;;;;;;;;;;;;5016561;28;19922;-78
2023/10/10 00:52:12;;;;;;;;;;;;;;;;;;5016258;28;19921;-78
2023/10/10 00:54:43;;;;;;;;;;;;;;;;;;5016874;28;19929;-79
2023/10/10 00:57:16;;;;;;;;;;;;;;;;;;5015919;28;19921;-79
2023/10/10 00:59:47;;;;;;;;;;;;;;;;;;5015994;28;20374;-79
2023/10/10 01:02:14;;;;;;;;;;;;;;;;;;5015988;28;19932;-78
2023/10/10 01:04:48;;;;;;;;;;;;;;;;;;5015644;28;19929;-78
2023/10/10 01:07:18;;;;;;;;;;;;;;;;;;5016162;28;19928;-78
2023/10/10 01:09:55;;;;;;;;;;;;;;;;;;5015711;28;19921;-78
2023/10/10 01:12:22;;;;;;;;;;;;;;;;;;5024666;28;19928;-78
2023/10/10 01:14:54;;;;;;;;;;;;;;;;;;5020709;28;19929;-78
2023/10/10 01:17:20;;;;;;;;;;;;;;;;;;5015231;28;19921;-78
2023/10/10 01:19:50;;;;;;;;;;;;;;;;;;5016493;28;19932;-78
2023/10/10 01:22:36;;;;;;;;;;;;;;;;;;5015709;28;19928;-78
2023/10/10 01:25:06;;;;;;;;;;;;;;;;;;5015728;28;20375;-78
2023/10/10 01:27:37;;;;;;;;;;;;;;;;;;5016225;28;19921;-79
2023/10/10 01:30:17;;;;;;;;;;;;;;;;;;5015372;28;19921;-78
2023/10/10 01:32:50;;;;;;;;;;;;;;;;;;5015518;28;20370;-78
2023/10/10 01:35:16;;;;;;;;;;;;;;;;;;5014925;28;19922;-79
2023/10/10 01:37:48;;;;;;;;;;;;;;;;;;5015309;28;19922;-79
2023/10/10 01:40:15;;;;;;;;;;;;;;;;;;5014940;28;19921;-78
2023/10/10 01:42:45;;;;;;;;;;;;;;;;;;5024831;28;19928;-78
2023/10/10 01:45:18;;;;;;;;;;;;;;;;;;5034584;28;19928;-78
2023/10/10 01:47:56;;;;;;;;;;;;;;;;;;5034853;28;20287;-78
2023/10/10 01:50:23;;;;;;;;;;;;;;;;;;5034896;28;19928;-78
2023/10/10 01:52:50;;;;;;;;;;;;;;;;;;5034420;28;20385;-79
2023/10/10 01:55:17;;;;;;;;;;;;;;;;;;5034846;28;20274;-79
2023/10/10 01:57:43;;;;;;;;;;;;;;;;;;5019465;28;19928;-79
2023/10/10 02:00:20;;;;;;;;;;;;;;;;;;5014888;28;19929;-79
2023/10/10 02:02:49;;;;;;;;;;;;;;;;;;5014879;28;20290;-79
2023/10/10 02:05:29;;;;;;;;;;;;;;;;;;5015174;28;20387;-79
2023/10/10 02:07:57;;;;;;;;;;;;;;;;;;5014787;28;19923;-78
2023/10/10 02:10:26;;;;;;;;;;;;;;;;;;5014746;28;19922;-78
2023/10/10 02:12:52;;;;;;;;;;;;;;;;;;5015614;28;20370;-78
2023/10/10 02:15:24;;;;;;;;;;;;;;;;;;5014677;28;19928;-78
2023/10/10 02:17:54;;;;;;;;;;;;;;;;;;5017588;28;19921;-79
2023/10/10 02:20:33;;;;;;;;;;;;;;;;;;5033625;28;19921;-78
2023/10/10 02:23:09;;;;;;;;;;;;;;;;;;5034109;28;19921;-79
2023/10/10 02:25:39;;;;;;;;;;;;;;;;;;5034180;28;19928;-79
2023/10/10 02:28:10;;;;;;;;;;;;;;;;;;5016213;28;19922;-79
2023/10/10 02:30:37;;;;;;;;;;;;;;;;;;5014049;28;20286;-79
2023/10/10 02:33:14;;;;;;;;;;;;;;;;;;5015548;28;19922;-78
2023/10/10 02:35:54;;;;;;;;;;;;;;;;;;5014995;28;19928;-78
2023/10/10 02:38:22;;;;;;;;;;;;;;;;;;5014460;28;19922;-78
2023/10/10 02:40:53;;;;;;;;;;;;;;;;;;5019287;28;19921;-78
2023/10/10 02:43:33;;;;;;;;;;;;;;;;;;5014379;28;19921;-79
2023/10/10 02:45:59;;;;;;;;;;;;;;;;;;5014460;28;19921;-78
2023/10/10 02:48:27;;;;;;;;;;;;;;;;;;5014220;28;19921;-79
2023/10/10 02:50:53;;;;;;;;;;;;;;;;;;5014393;28;20298;-79
2023/10/10 02:53:21;;;;;;;;;;;;;;;;;;5014387;28;19922;-78
2023/10/10 02:55:51;;;;;;;;;;;;;;;;;;5014337;28;19928;-79
2023/10/10 02:58:21;;;;;;;;;;;;;;;;;;5014004;28;19925;-79
2023/10/10 03:00:48;;;;;;;;;;;;;;;;;;5013826;28;19925;-79
2023/10/10 03:03:18;;;;;;;;;;;;;;;;;;5013493;28;19928;-79
2023/10/10 03:05:50;;;;;;;;;;;;;;;;;;5013885;28;19921;-79
2023/10/10 03:08:18;;;;;;;;;;;;;;;;;;5013888;28;19921;-79
2023/10/10 03:10:46;;;;;;;;;;;;;;;;;;5013704;28;19921;-79
2023/10/10 03:13:31;;;;;;;;;;;;;;;;;;5032950;28;20401;-79
2023/10/10 03:16:10;;;;;;;;;;;;;;;;;;5031686;28;19921;-79
2023/10/10 03:18:43;;;;;;;;;;;;;;;;;;5033009;28;19921;-79
2023/10/10 03:21:35;;;;;;;;;;;;;;;;;;5023538;28;19921;-79
2023/10/10 03:24:08;;;;;;;;;;;;;;;;;;5013615;28;19929;-78
2023/10/10 03:26:59;;;;;;;;;;;;;;;;;;5013901;28;20290;-79
2023/10/10 03:29:37;;;;;;;;;;;;;;;;;;5013787;28;19924;-78
2023/10/10 03:34:45;;;;;;;;;;;;;;;;;;5013066;28;19925;-79
2023/10/10 03:37:21;;;;;;;;;;;;;;;;;;5013533;28;19929;-79
2023/10/10 03:39:53;;;;;;;;;;;;;;;;;;5013422;28;19924;-78
2023/10/10 05:23:35;;;;;;;;;;;;;;;;;;5036685;28;19928;-79
2023/10/10 05:26:02;;;;;;;;;;;;;;;;;;5032173;28;19928;-78
2023/10/10 05:28:30;;;;;;;;;;;;;;;;;;5027938;28;19944;-76
2023/10/10 05:30:57;;;;;;;;;;;;;;;;;;5026152;28;19928;-78
2023/10/10 05:33:26;;;;;;;;;;;;;;;;;;5014474;28;19921;-78
2023/10/10 05:35:52;;;;;;;;;;;;;;;;;;4996828;28;19992;-79
2023/10/10 05:38:19;;;;;;;;;;;;;;;;;;5014084;28;19926;-78
2023/10/10 05:40:47;;;;;;;;;;;;;;;;;;5014605;28;19929;-77
2023/10/10 05:43:15;;;;;;;;;;;;;;;;;;5014468;28;19929;-78
2023/10/10 05:45:42;;;;;;;;;;;;;;;;;;5015166;28;19937;-76
2023/10/10 05:48:08;;;;;;;;;;;;;;;;;;5014346;28;20055;-77
2023/10/10 05:50:35;;;;;;;;;;;;;;;;;;5014019;28;19921;-78
2023/10/10 05:53:03;;;;;;;;;;;;;;;;;;5013689;28;19940;-79
2023/10/10 05:55:31;;;;;;;;;;;;;;;;;;5024234;28;19921;-80
2023/10/10 05:57:58;;;;;;;;;;;;;;;;;;5021658;28;19929;-80
2023/10/10 06:00:26;;;;;;;;;;;;;;;;;;5017447;28;19929;-79
2023/10/10 06:02:53;;;;;;;;;;;;;;;;;;5023224;28;20385;-81
2023/10/10 06:05:20;;;;;;;;;;;;;;;;;;5023487;28;19921;-79
2023/10/10 06:07:49;;;;;;;;;;;;;;;;;;5021784;28;19925;-79
2023/10/10 06:10:16;;;;;;;;;;;;;;;;;;5026138;28;19928;-79
2023/10/10 06:12:43;;;;;;;;;;;;;;;;;;5032262;28;19921;-79
2023/10/10 06:15:09;;;;;;;;;;;;;;;;;;5027651;28;19932;-79
2023/10/10 06:17:36;;;;;;;;;;;;;;;;;;5016655;28;19922;-80
2023/10/10 06:20:02;;;;;;;;;;;;;;;;;;5029505;28;19921;-79
2023/10/10 06:22:30;;;;;;;;;;;;;;;;;;5017239;28;20314;-79
2023/10/10 06:24:58;;;;;;;;;;;;;;;;;;5020536;28;19921;-79
2023/10/10 06:27:28;;;;;;;;;;;;;;;;;;5014112;28;19928;-80
2023/10/10 06:29:55;;;;;;;;;;;;;;;;;;5034149;28;19921;-80
2023/10/10 06:32:21;;;;;;;;;;;;;;;;;;5032333;28;20305;-80
2023/10/10 06:35:04;;;;;;;;;;;;;;;;;;5032595;28;19921;-80
2023/10/10 06:37:35;;;;;;;;;;;;;;;;;;5025915;28;19947;-80
2023/10/10 06:40:07;;;;;;;;;;;;;;;;;;5018367;28;19921;-80
2023/10/10 06:42:34;;;;;;;;;;;;;;;;;;5033362;28;19944;-80
2023/10/10 06:45:07;;;;;;;;;;;;;;;;;;5033790;28;20274;-80
2023/10/10 06:47:34;;;;;;;;;;;;;;;;;;5032577;28;20370;-79
2023/10/10 06:50:10;;;;;;;;;;;;;;;;;;5032145;28;20273;-80
2023/10/10 06:52:37;;;;;;;;;;;;;;;;;;5019365;28;19932;-80
2023/10/10 06:55:10;;;;;;;;;;;;;;;;;;5033650;28;19932;-80
2023/10/10 06:57:38;;;;;;;;;;;;;;;;;;5033374;28;19932;-80
2023/10/10 07:00:17;;;;;;;;;;;;;;;;;;5032355;28;19928;-80
2023/10/10 07:02:49;;;;;;;;;;;;;;;;;;5014206;28;19930;-80
2023/10/10 07:05:15;;;;;;;;;;;;;;;;;;5013975;28;19922;-80
2023/10/10 07:07:42;;;;;;;;;;;;;;;;;;5014397;28;19928;-80
2023/10/10 07:10:09;;;;;;;;;;;;;;;;;;5012620;28;19928;-80
2023/10/10 07:12:38;;;;;;;;;;;;;;;;;;5012259;28;19921;-80
2023/10/10 07:15:06;;;;;;;;;;;;;;;;;;5012390;28;19921;-80
2023/10/10 07:17:38;;;;;;;;;;;;;;;;;;5012927;28;20263;-80
2023/10/10 07:22:53;;;;;;;;;;;;;;;;;;5033063;28;19916;-80
2023/10/10 07:25:31;;;;;;;;;;;;;;;;;;5018893;28;20318;-81
2023/10/10 07:28:00;;;;;;;;;;;;;;;;;;5013854;28;19928;-80
2023/10/10 07:30:33;;;;;;;;;;;;;;;;;;5016193;28;19921;-79
2023/10/10 07:33:02;;;;;;;;;;;;;;;;;;5033206;28;19940;-80
2023/10/10 07:35:35;;;;;;;;;;;;;;;;;;5032892;28;19925;-80
2023/10/10 07:38:02;;;;;;;;;;;;;;;;;;5026415;28;19944;-80
2023/10/10 07:40:30;;;;;;;;;;;;;;;;;;5013815;28;19922;-80
2023/10/10 07:43:02;;;;;;;;;;;;;;;;;;5014224;28;19921;-80
2023/10/10 07:45:33;;;;;;;;;;;;;;;;;;5013734;28;20298;-80
2023/10/10 07:50:55;;;;;;;;;;;;;;;;;;5013720;28;19916;-81
2023/10/10 07:53:22;;;;;;;;;;;;;;;;;;5024566;28;19921;-81
2023/10/10 07:56:00;;;;;;;;;;;;;;;;;;5033418;28;19921;-81
2023/10/10 07:58:42;;;;;;;;;;;;;;;;;;5033226;28;19921;-81
2023/10/10 08:01:10;;;;;;;;;;;;;;;;;;5033247;28;19921;-81
2023/10/10 08:03:36;;;;;;;;;;;;;;;;;;5032846;28;19928;-80
2023/10/10 08:06:08;;;;;;;;;;;;;;;;;;5032587;28;20303;-81
2023/10/10 08:08:35;;;;;;;;;;;;;;;;;;5017452;28;19922;-81
2023/10/10 08:11:05;;;;;;;;;;;;;;;;;;5013757;28;19921;-80
2023/10/10 08:13:32;;;;;;;;;;;;;;;;;;5025285;28;19921;-81
2023/10/10 08:16:02;;;;;;;;;;;;;;;;;;5033359;28;19921;-81
2023/10/10 08:18:49;;;;;;;;;;;;;;;;;;5015195;28;19921;-81
2023/10/10 08:21:16;;;;;;;;;;;;;;;;;;5033416;28;19920;-81
2023/10/10 08:23:45;;;;;;;;;;;;;;;;;;5022720;28;19920;-81
2023/10/10 08:26:12;;;;;;;;;;;;;;;;;;5033009;28;20275;-81
2023/10/10 08:28:38;;;;;;;;;;;;;;;;;;5029289;28;20382;-81
2023/10/10 08:31:05;;;;;;;;;;;;;;;;;;5036639;28;20354;-81
2023/10/10 08:33:32;;;;;;;;;;;;;;;;;;5036599;28;19925;-81
2023/10/10 08:35:59;;;;;;;;;;;;;;;;;;5036629;28;19921;-81
2023/10/10 08:38:25;;;;;;;;;;;;;;;;;;5021140;28;19928;-82
2023/10/10 08:40:57;;;;;;;;;;;;;;;;;;5016266;28;20362;-81
2023/10/10 08:43:23;;;;;;;;;;;;;;;;;;5016404;28;20290;-81
2023/10/10 08:45:54;;;;;;;;;;;;;;;;;;5016416;28;19921;-82
2023/10/10 08:48:26;;;;;;;;;;;;;;;;;;5016465;28;19925;-81
2023/10/10 08:50:53;;;;;;;;;;;;;;;;;;5016598;28;19928;-81
2023/10/10 08:53:20;;;;;;;;;;;;;;;;;;5016249;28;19929;-82
2023/10/10 08:55:56;;;;;;;;;;;;;;;;;;5016127;28;20294;-81
2023/10/10 08:58:22;;;;;;;;;;;;;;;;;;5016131;28;19921;-82
2023/10/10 09:00:49;;;;;;;;;;;;;;;;;;5016383;28;19929;-82
2023/10/10 09:03:15;;;;;;;;;;;;;;;;;;5021214;28;19928;-82
2023/10/10 09:05:42;;;;;;;;;;;;;;;;;;5029174;28;19928;-81
2023/10/10 09:08:14;;;;;;;;;;;;;;;;;;5023745;28;20259;-81
2023/10/10 09:10:40;;;;;;;;;;;;;;;;;;5015600;28;19921;-81
2023/10/10 09:13:07;;;;;;;;;;;;;;;;;;5015814;28;19929;-82
2023/10/10 09:15:34;;;;;;;;;;;;;;;;;;5015803;28;19929;-82
2023/10/10 09:18:05;;;;;;;;;;;;;;;;;;5015532;28;19929;-81
2023/10/10 09:20:32;;;;;;;;;;;;;;;;;;5015162;28;19928;-82
2023/10/10 09:23:04;;;;;;;;;;;;;;;;;;5015524;28;19922;-82
2023/10/10 09:25:42;;;;;;;;;;;;;;;;;;5015961;28;19929;-82
2023/10/10 09:28:10;;;;;;;;;;;;;;;;;;5023975;28;19928;-82
2023/10/10 09:30:40;;;;;;;;;;;;;;;;;;5035341;28;19925;-82
2023/10/10 09:33:22;;;;;;;;;;;;;;;;;;5035240;28;19921;-82
2023/10/10 09:35:53;;;;;;;;;;;;;;;;;;5035042;28;19921;-82
2023/10/10 09:38:20;;;;;;;;;;;;;;;;;;5034579;28;20317;-82
2023/10/10 09:40:48;;;;;;;;;;;;;;;;;;5035128;28;19943;-82
2023/10/10 09:43:24;;;;;;;;;;;;;;;;;;5035144;28;19921;-82
2023/10/10 09:45:53;;;;;;;;;;;;;;;;;;5035224;28;19921;-82
2023/10/10 09:48:33;;;;;;;;;;;;;;;;;;5017480;28;19924;-82
2023/10/10 09:51:08;;;;;;;;;;;;;;;;;;5018851;28;19921;-81
2023/10/10 09:53:35;;;;;;;;;;;;;;;;;;5034206;28;20402;-82
2023/10/10 09:56:01;;;;;;;;;;;;;;;;;;5035148;28;20285;-82
2023/10/10 09:58:28;;;;;;;;;;;;;;;;;;5035035;28;19924;-82
2023/10/10 10:00:55;;;;;;;;;;;;;;;;;;5034827;28;19920;-82
2023/10/10 10:03:40;;;;;;;;;;;;;;;;;;5034739;28;20370;-82
2023/10/10 10:06:34;;;;;;;;;;;;;;;;;;5032040;28;19936;-82
2023/10/10 10:09:02;;;;;;;;;;;;;;;;;;5014915;28;19929;-82
2023/10/10 10:11:29;;;;;;;;;;;;;;;;;;5015105;28;20374;-81
2023/10/10 10:13:57;;;;;;;;;;;;;;;;;;5014747;28;19922;-81
2023/10/10 10:16:25;;;;;;;;;;;;;;;;;;5015095;28;19925;-81
2023/10/10 10:19:05;;;;;;;;;;;;;;;;;;5019933;28;19921;-81
2023/10/10 10:21:32;;;;;;;;;;;;;;;;;;5032794;28;20467;-82
2023/10/10 10:24:15;;;;;;;;;;;;;;;;;;5034464;28;19921;-81
2023/10/10 10:26:43;;;;;;;;;;;;;;;;;;5034173;28;19921;-81
2023/10/10 10:29:15;;;;;;;;;;;;;;;;;;5034632;28;19928;-81
2023/10/10 10:31:49;;;;;;;;;;;;;;;;;;5016949;28;19984;-82
2023/10/10 10:34:23;;;;;;;;;;;;;;;;;;5034294;28;19928;-82
2023/10/10 10:36:50;;;;;;;;;;;;;;;;;;5021862;28;19921;-81
2023/10/10 10:39:20;;;;;;;;;;;;;;;;;;5014858;28;19921;-81
2023/10/10 10:41:53;;;;;;;;;;;;;;;;;;5014817;28;19925;-81
2023/10/10 10:44:23;;;;;;;;;;;;;;;;;;5014578;28;19921;-81
2023/10/10 10:46:50;;;;;;;;;;;;;;;;;;5014428;28;19921;-81
2023/10/10 10:49:22;;;;;;;;;;;;;;;;;;5014593;28;19944;-81
2023/10/10 10:51:50;;;;;;;;;;;;;;;;;;5014754;28;20298;-82
2023/10/10 10:54:35;;;;;;;;;;;;;;;;;;5014293;28;19921;-81
2023/10/10 10:57:03;;;;;;;;;;;;;;;;;;5014439;28;19928;-81
2023/10/10 10:59:35;;;;;;;;;;;;;;;;;;5014012;28;19921;-80
2023/10/10 11:02:13;;;;;;;;;;;;;;;;;;5033635;28;19917;-80
2023/10/10 11:04:43;;;;;;;;;;;;;;;;;;5033435;28;19928;-80
2023/10/10 11:07:16;;;;;;;;;;;;;;;;;;5032281;28;19921;-80
2023/10/10 11:09:52;;;;;;;;;;;;;;;;;;5013974;28;19921;-80
2023/10/10 11:12:21;;;;;;;;;;;;;;;;;;5016201;28;20393;-80
2023/10/10 11:14:49;;;;;;;;;;;;;;;;;;5033128;28;19921;-80
2023/10/10 11:17:18;;;;;;;;;;;;;;;;;;5033591;28;20286;-80
2023/10/10 11:19:46;;;;;;;;;;;;;;;;;;5032993;28;19921;-80
2023/10/10 11:22:38;;;;;;;;;;;;;;;;;;5018766;28;19925;-80
2023/10/10 11:25:05;;;;;;;;;;;;;;;;;;5013542;28;19926;-81
2023/10/10 11:27:33;;;;;;;;;;;;;;;;;;5013902;28;19929;-81
2023/10/10 11:30:01;;;;;;;;;;;;;;;;;;5013832;28;19927;-82
2023/10/10 11:32:29;;;;;;;;;;;;;;;;;;5023978;28;19928;-82
2023/10/10 11:34:56;;;;;;;;;;;;;;;;;;5033284;28;19928;-81
2023/10/10 11:37:23;;;;;;;;;;;;;;;;;;5020525;28;19922;-82
2023/10/10 11:39:57;;;;;;;;;;;;;;;;;;5013549;28;19921;-82
2023/10/10 11:42:24;;;;;;;;;;;;;;;;;;5013715;28;19925;-81
2023/10/10 11:44:50;;;;;;;;;;;;;;;;;;5013587;28;19929;-82
2023/10/10 11:47:24;;;;;;;;;;;;;;;;;;5012967;28;19929;-82
2023/10/10 11:49:51;;;;;;;;;;;;;;;;;;5013163;28;19929;-82
2023/10/10 11:52:17;;;;;;;;;;;;;;;;;;5027064;28;19921;-82
2023/10/10 11:54:44;;;;;;;;;;;;;;;;;;5033132;28;19927;-82
2023/10/10 11:57:15;;;;;;;;;;;;;;;;;;5033271;28;19928;-82
2023/10/10 11:59:44;;;;;;;;;;;;;;;;;;5033244;28;19928;-82
2023/10/10 12:02:16;;;;;;;;;;;;;;;;;;5033201;28;20377;-82
2023/10/10 12:04:44;;;;;;;;;;;;;;;;;;5035431;28;19921;-82
2023/10/10 12:07:13;;;;;;;;;;;;;;;;;;5021759;28;19929;-82
2023/10/10 12:09:44;;;;;;;;;;;;;;;;;;5017780;28;19928;-82
2023/10/10 12:12:11;;;;;;;;;;;;;;;;;;5017959;28;20274;-82
2023/10/10 12:14:38;;;;;;;;;;;;;;;;;;5017515;28;19929;-82
2023/10/10 12:17:06;;;;;;;;;;;;;;;;;;5017447;28;19932;-82
2023/10/10 12:19:36;;;;;;;;;;;;;;;;;;5016999;28;19921;-82
2023/10/10 12:22:07;;;;;;;;;;;;;;;;;;5016897;28;19921;-81
2023/10/10 12:24:34;;;;;;;;;;;;;;;;;;5016682;28;20287;-82
2023/10/10 12:27:01;;;;;;;;;;;;;;;;;;5017160;28;19928;-82
2023/10/10 12:29:30;;;;;;;;;;;;;;;;;;5016725;28;19921;-82
2023/10/10 12:31:56;;;;;;;;;;;;;;;;;;5016327;28;19921;-82
2023/10/10 12:34:23;;;;;;;;;;;;;;;;;;5016822;28;19928;-81
2023/10/10 12:36:50;;;;;;;;;;;;;;;;;;5017424;28;19921;-82
2023/10/10 12:39:17;;;;;;;;;;;;;;;;;;5016686;28;20374;-82
2023/10/10 12:41:46;;;;;;;;;;;;;;;;;;5016553;28;19922;-82
2023/10/10 12:44:13;;;;;;;;;;;;;;;;;;5017324;28;19929;-82
2023/10/10 12:46:40;;;;;;;;;;;;;;;;;;5016685;28;19921;-82
2023/10/10 12:49:11;;;;;;;;;;;;;;;;;;5016520;28;19921;-82
2023/10/10 12:51:38;;;;;;;;;;;;;;;;;;5035363;28;20289;-82
2023/10/10 12:54:06;;;;;;;;;;;;;;;;;;5036019;28;19924;-82
2023/10/10 12:56:38;;;;;;;;;;;;;;;;;;5036084;28;19928;-82
2023/10/10 12:59:07;;;;;;;;;;;;;;;;;;5036308;28;19932;-82
2023/10/10 13:01:35;;;;;;;;;;;;;;;;;;5036268;28;19928;-82
2023/10/10 13:04:07;;;;;;;;;;;;;;;;;;5028292;28;19921;-82
2023/10/10 13:06:35;;;;;;;;;;;;;;;;;;5035640;28;20285;-82
2023/10/10 13:09:05;;;;;;;;;;;;;;;;;;5035669;28;19928;-81
2023/10/10 13:11:35;;;;;;;;;;;;;;;;;;5035883;28;19921;-82
2023/10/10 13:14:10;;;;;;;;;;;;;;;;;;5035798;28;19921;-82
2023/10/10 13:16:52;;;;;;;;;;;;;;;;;;5035068;28;19921;-81
2023/10/10 13:19:20;;;;;;;;;;;;;;;;;;5026020;28;19922;-82
2023/10/10 13:21:48;;;;;;;;;;;;;;;;;;5015873;28;19928;-82
2023/10/10 13:24:15;;;;;;;;;;;;;;;;;;5017158;28;19947;-81
2023/10/10 13:29:21;;;;;;;;;;;;;;;;;;5018417;28;19924;-80
2023/10/10 13:31:49;;;;;;;;;;;;;;;;;;5035371;28;19921;-81
2023/10/10 13:34:16;;;;;;;;;;;;;;;;;;5034692;28;19932;-81
2023/10/10 13:36:43;;;;;;;;;;;;;;;;;;5035410;28;19928;-82
2023/10/10 13:39:15;;;;;;;;;;;;;;;;;;5035880;28;19921;-81
2023/10/10 13:41:41;;;;;;;;;;;;;;;;;;5035039;28;19921;-81
2023/10/10 13:44:10;;;;;;;;;;;;;;;;;;5035283;28;19928;-81
2023/10/10 13:46:37;;;;;;;;;;;;;;;;;;5035300;28;19929;-81
2023/10/10 13:49:04;;;;;;;;;;;;;;;;;;5019486;28;19921;-81
2023/10/10 13:51:39;;;;;;;;;;;;;;;;;;5015398;28;19921;-81
2023/10/10 13:54:05;;;;;;;;;;;;;;;;;;5014990;28;19925;-81
2023/10/10 13:56:32;;;;;;;;;;;;;;;;;;5015375;28;19922;-81
2023/10/10 13:59:00;;;;;;;;;;;;;;;;;;5015349;28;19921;-81
2023/10/10 14:01:29;;;;;;;;;;;;;;;;;;5015216;28;19928;-81
2023/10/10 14:04:00;;;;;;;;;;;;;;;;;;5015039;28;19925;-82
2023/10/10 14:06:33;;;;;;;;;;;;;;;;;;5015218;28;19922;-81
2023/10/10 14:09:00;;;;;;;;;;;;;;;;;;5014862;28;19921;-82
2023/10/10 14:11:27;;;;;;;;;;;;;;;;;;5015173;28;19921;-81
2023/10/10 14:13:53;;;;;;;;;;;;;;;;;;5014760;28;20397;-81
2023/10/10 14:16:20;;;;;;;;;;;;;;;;;;5015445;28;19922;-81
2023/10/10 14:18:47;;;;;;;;;;;;;;;;;;5014564;28;19921;-81
2023/10/10 14:21:13;;;;;;;;;;;;;;;;;;5015477;28;19922;-82
2023/10/10 14:23:40;;;;;;;;;;;;;;;;;;5014846;28;19928;-81
2023/10/10 14:26:17;;;;;;;;;;;;;;;;;;5014114;28;19929;-81
2023/10/10 14:28:50;;;;;;;;;;;;;;;;;;5033103;28;19927;-81
2023/10/10 14:31:17;;;;;;;;;;;;;;;;;;5034643;28;19947;-81
2023/10/10 14:33:44;;;;;;;;;;;;;;;;;;5015741;28;19921;-81
2023/10/10 14:36:12;;;;;;;;;;;;;;;;;;5014784;28;19929;-80
2023/10/10 14:38:39;;;;;;;;;;;;;;;;;;5014622;28;19921;-80
2023/10/10 14:41:07;;;;;;;;;;;;;;;;;;5014877;28;20505;-80
2023/10/10 14:43:34;;;;;;;;;;;;;;;;;;5014484;28;19921;-78
2023/10/10 14:46:00;;;;;;;;;;;;;;;;;;5015040;28;19928;-78
2023/10/10 14:48:30;;;;;;;;;;;;;;;;;;5014241;28;20318;-78
2023/10/10 14:50:57;;;;;;;;;;;;;;;;;;5028166;28;20419;-80
2023/10/10 14:53:23;;;;;;;;;;;;;;;;;;4996476;28;19929;-79
2023/10/10 14:55:51;;;;;;;;;;;;;;;;;;5014201;28;19922;-79
2023/10/10 14:58:21;;;;;;;;;;;;;;;;;;5013969;28;19921;-80
2023/10/10 15:00:49;;;;;;;;;;;;;;;;;;5014706;28;19929;-79
2023/10/10 15:03:16;;;;;;;;;;;;;;;;;;5014024;28;20295;-79
2023/10/10 15:05:46;;;;;;;;;;;;;;;;;;5015068;28;19922;-78
2023/10/10 15:08:13;;;;;;;;;;;;;;;;;;5013487;28;19922;-78
2023/10/10 15:10:40;;;;;;;;;;;;;;;;;;5022832;28;19921;-79
2023/10/10 15:13:08;;;;;;;;;;;;;;;;;;5024821;28;19921;-80
2023/10/10 15:15:35;;;;;;;;;;;;;;;;;;5013476;28;19921;-79
2023/10/10 15:18:01;;;;;;;;;;;;;;;;;;5014893;28;19932;-79
2023/10/10 15:20:29;;;;;;;;;;;;;;;;;;5026388;28;19922;-79
2023/10/10 15:22:55;;;;;;;;;;;;;;;;;;5031412;28;20385;-79
2023/10/10 15:25:22;;;;;;;;;;;;;;;;;;5033314;28;20385;-79
2023/10/10 15:27:49;;;;;;;;;;;;;;;;;;5033144;28;19943;-79
2023/10/10 15:30:16;;;;;;;;;;;;;;;;;;5029111;28;19929;-79
2023/10/10 15:32:46;;;;;;;;;;;;;;;;;;5024704;28;19928;-79
2023/10/10 15:35:12;;;;;;;;;;;;;;;;;;5017942;28;19922;-79
2023/10/10 15:37:42;;;;;;;;;;;;;;;;;;5015283;28;20383;-78
2023/10/10 15:40:12;;;;;;;;;;;;;;;;;;5017930;28;20399;-80
2023/10/10 15:42:39;;;;;;;;;;;;;;;;;;5017884;28;20270;-78
2023/10/10 15:45:05;;;;;;;;;;;;;;;;;;5014012;28;19921;-78
2023/10/10 15:47:32;;;;;;;;;;;;;;;;;;5014382;28;19921;-78
2023/10/10 15:50:00;;;;;;;;;;;;;;;;;;5013565;28;20358;-79
2023/10/10 15:52:27;;;;;;;;;;;;;;;;;;5013456;28;19921;-78
2023/10/10 15:54:53;;;;;;;;;;;;;;;;;;5013017;28;20273;-79
2023/10/10 15:57:22;;;;;;;;;;;;;;;;;;5012991;28;19921;-79
2023/10/10 15:59:49;;;;;;;;;;;;;;;;;;5013050;28;20286;-79
2023/10/10 16:02:15;;;;;;;;;;;;;;;;;;5013682;28;19922;-78
2023/10/10 16:04:44;;;;;;;;;;;;;;;;;;5013138;28;20205;-78
2023/10/10 16:07:11;;;;;;;;;;;;;;;;;;5012887;28;19921;-79
2023/10/10 16:09:38;;;;;;;;;;;;;;;;;;5012840;28;20314;-79
2023/10/10 16:12:07;;;;;;;;;;;;;;;;;;5012816;28;19921;-79
2023/10/10 16:14:36;;;;;;;;;;;;;;;;;;5013098;28;19928;-79
2023/10/10 16:17:03;;;;;;;;;;;;;;;;;;5013051;28;19937;-79
2023/10/10 16:19:32;;;;;;;;;;;;;;;;;;5011519;28;19921;-79
2023/10/10 16:21:59;;;;;;;;;;;;;;;;;;5032918;28;19925;-79
2023/10/10 16:24:27;;;;;;;;;;;;;;;;;;5032480;28;19928;-79
2023/10/10 16:26:58;;;;;;;;;;;;;;;;;;5032654;28;20293;-79
2023/10/10 16:29:25;;;;;;;;;;;;;;;;;;5032154;28;19929;-78
2023/10/10 16:31:53;;;;;;;;;;;;;;;;;;5019493;28;19929;-79
2023/10/10 16:34:20;;;;;;;;;;;;;;;;;;5012822;28;19929;-78
2023/10/10 16:36:48;;;;;;;;;;;;;;;;;;5019184;28;20388;-78
2023/10/10 16:39:14;;;;;;;;;;;;;;;;;;5031166;28;19921;-78
2023/10/10 16:41:40;;;;;;;;;;;;;;;;;;5014798;28;19921;-78
2023/10/10 16:44:11;;;;;;;;;;;;;;;;;;5012942;28;19933;-78
2023/10/10 16:46:38;;;;;;;;;;;;;;;;;;5013592;28;19926;-78
2023/10/10 16:49:06;;;;;;;;;;;;;;;;;;5013058;28;19921;-78
2023/10/10 16:51:32;;;;;;;;;;;;;;;;;;5016668;28;19921;-78
2023/10/10 16:53:59;;;;;;;;;;;;;;;;;;5016521;28;19922;-79
2023/10/10 16:56:27;;;;;;;;;;;;;;;;;;5016722;28;20290;-78
2023/10/10 16:58:53;;;;;;;;;;;;;;;;;;5015950;28;19921;-79
2023/10/10 17:01:21;;;;;;;;;;;;;;;;;;5016457;28;19921;-76
2023/10/10 17:03:48;;;;;;;;;;;;;;;;;;5020187;28;19949;-77
2023/10/10 17:06:22;;;;;;;;;;;;;;;;;;5033163;28;19921;-75
2023/10/10 17:08:48;;;;;;;;;;;;;;;;;;5036209;28;19925;-76
2023/10/10 17:11:15;;;;;;;;;;;;;;;;;;5036124;28;19920;-76
2023/10/10 17:13:41;;;;;;;;;;;;;;;;;;5017433;28;19929;-77
2023/10/10 17:16:11;;;;;;;;;;;;;;;;;;5016888;28;19926;-77
2023/10/10 17:18:37;;;;;;;;;;;;;;;;;;5020134;28;21132;-78
2023/10/10 17:21:04;;;;;;;;;;;;;;;;;;5023919;28;19921;-77
2023/10/10 17:23:30;;;;;;;;;;;;;;;;;;5027426;28;20337;-78
2023/10/10 17:25:56;;;;;;;;;;;;;;;;;;5025575;28;19921;-78
2023/10/10 17:28:25;;;;;;;;;;;;;;;;;;5034588;28;19928;-78
2023/10/10 17:30:52;;;;;;;;;;;;;;;;;;5024719;28;19936;-78
2023/10/10 17:33:19;;;;;;;;;;;;;;;;;;5026338;28;19928;-78
2023/10/10 17:35:46;;;;;;;;;;;;;;;;;;5025137;28;19948;-79
2023/10/10 17:38:13;;;;;;;;;;;;;;;;;;5028718;28;19929;-79
2023/10/10 17:40:40;;;;;;;;;;;;;;;;;;5019597;28;19928;-78
2023/10/10 17:43:09;;;;;;;;;;;;;;;;;;5016068;28;20396;-79
2023/10/10 17:45:36;;;;;;;;;;;;;;;;;;5015569;28;20382;-79
2023/10/10 17:48:05;;;;;;;;;;;;;;;;;;5016428;28;19921;-80
2023/10/10 17:50:31;;;;;;;;;;;;;;;;;;5024217;28;20266;-80
2023/10/10 17:52:59;;;;;;;;;;;;;;;;;;5034798;28;19948;-80
2023/10/10 17:55:27;;;;;;;;;;;;;;;;;;5034944;28;19928;-80
2023/10/10 17:57:53;;;;;;;;;;;;;;;;;;5022417;28;19921;-77
2023/10/10 18:00:20;;;;;;;;;;;;;;;;;;5014746;28;20301;-75
2023/10/10 18:02:50;;;;;;;;;;;;;;;;;;5013760;28;19928;-76
2023/10/10 18:05:16;;;;;;;;;;;;;;;;;;5014801;28;20409;-80
2023/10/10 18:07:43;;;;;;;;;;;;;;;;;;5021204;28;19921;-75
2023/10/10 18:10:12;;;;;;;;;;;;;;;;;;5026559;28;19921;-76
2023/10/10 18:12:40;;;;;;;;;;;;;;;;;;5034523;28;19920;-76
2023/10/10 18:15:10;;;;;;;;;;;;;;;;;;5028312;28;20265;-75
2023/10/10 18:17:36;;;;;;;;;;;;;;;;;;5027787;28;19929;-75
2023/10/10 18:20:14;;;;;;;;;;;;;;;;;;5014300;28;19921;-75
2023/10/10 18:22:41;;;;;;;;;;;;;;;;;;5014038;28;19921;-75
2023/10/10 18:25:08;;;;;;;;;;;;;;;;;;5015686;28;19932;-75
2023/10/10 18:27:35;;;;;;;;;;;;;;;;;;5015099;28;19944;-75
2023/10/10 18:30:02;;;;;;;;;;;;;;;;;;5014919;28;19921;-75
2023/10/10 18:32:29;;;;;;;;;;;;;;;;;;5016833;28;20362;-76
2023/10/10 18:34:55;;;;;;;;;;;;;;;;;;5034176;28;19921;-75
2023/10/10 18:37:23;;;;;;;;;;;;;;;;;;5032392;28;19921;-75
2023/10/10 18:39:50;;;;;;;;;;;;;;;;;;5019896;28;20275;-76
2023/10/10 18:42:18;;;;;;;;;;;;;;;;;;5019635;28;20410;-75
2023/10/10 18:46:30;;;;;;;6.05;2.63;;;;;;;;;;5140069;27;20199;-59
2023/10/10 18:48:57;;;;;;;;;;;;;;;;;;5132535;27;20056;-58
2023/10/10 18:51:25;;;;;;;6.15;2.60;;;;;;;;;;5130411;28;19920;-58
2023/10/10 18:53:54;;;;;;;3.75;1.95;;;;;;;;;;5130154;27;20134;-58